sensor_id;sensor_type;location;lat;lon;timestamp;P1;durP1;ratioP1;P2;durP2;ratioP2
8893;SDS011;4483;48.622;9.230;2023-05-07T00:00:30;2.13;;;1.90;;
8893;SDS011;4483;48.622;9.230;2023-05-07T00:02:58;3.33;;;2.07;;
8893;SDS011;4483;48.622;9.230;2023-05-07T00:05:26;2.10;;;2.00;;
8893;SDS011;4483;48.622;9.230;2023-05-07T00:07:52;2.87;;;2.13;;
8893;SDS011;4483;48.622;9.230;2023-05-07T00:10:19;2.60;;;2.20;;
8893;SDS011;4483;48.622;9.230;2023-05-07T00:12:46;3.07;;;1.90;;
8893;SDS011;4483;48.622;9.230;2023-05-07T00:15:12;3.30;;;2.00;;
8893;SDS011;4483;48.622;9.230;2023-05-07T00:17:40;8.10;;;2.07;;
8893;SDS011;4483;48.622;9.230;2023-05-07T00:20:07;2.87;;;2.07;;
8893;SDS011;4483;48.622;9.230;2023-05-07T00:22:34;3.17;;;2.00;;
8893;SDS011;4483;48.622;9.230;2023-05-07T00:25:01;2.40;;;1.80;;
8893;SDS011;4483;48.622;9.230;2023-05-07T00:27:28;2.20;;;2.00;;
8893;SDS011;4483;48.622;9.230;2023-05-07T00:29:54;2.20;;;2.10;;
8893;SDS011;4483;48.622;9.230;2023-05-07T00:32:21;2.97;;;2.00;;
8893;SDS011;4483;48.622;9.230;2023-05-07T00:34:49;2.40;;;2.20;;
8893;SDS011;4483;48.622;9.230;2023-05-07T00:37:16;2.77;;;1.90;;
8893;SDS011;4483;48.622;9.230;2023-05-07T00:39:42;2.30;;;2.20;;
8893;SDS011;4483;48.622;9.230;2023-05-07T00:42:09;7.57;;;2.47;;
8893;SDS011;4483;48.622;9.230;2023-05-07T00:44:35;4.07;;;3.10;;
8893;SDS011;4483;48.622;9.230;2023-05-07T00:47:03;6.23;;;2.37;;
8893;SDS011;4483;48.622;9.230;2023-05-07T00:49:33;5.10;;;2.37;;
8893;SDS011;4483;48.622;9.230;2023-05-07T00:52:06;4.40;;;2.20;;
8893;SDS011;4483;48.622;9.230;2023-05-07T00:54:33;3.70;;;2.20;;
8893;SDS011;4483;48.622;9.230;2023-05-07T00:57:01;2.47;;;2.10;;
8893;SDS011;4483;48.622;9.230;2023-05-07T00:59:28;5.10;;;2.57;;
8893;SDS011;4483;48.622;9.230;2023-05-07T01:01:56;3.70;;;2.23;;
8893;SDS011;4483;48.622;9.230;2023-05-07T01:04:22;2.50;;;2.30;;
8893;SDS011;4483;48.622;9.230;2023-05-07T01:06:49;3.07;;;2.20;;
8893;SDS011;4483;48.622;9.230;2023-05-07T01:09:18;3.37;;;2.30;;
8893;SDS011;4483;48.622;9.230;2023-05-07T01:11:46;4.40;;;2.70;;
8893;SDS011;4483;48.622;9.230;2023-05-07T01:14:13;2.47;;;2.00;;
8893;SDS011;4483;48.622;9.230;2023-05-07T01:16:40;2.00;;;1.90;;
8893;SDS011;4483;48.622;9.230;2023-05-07T01:19:06;2.40;;;2.20;;
8893;SDS011;4483;48.622;9.230;2023-05-07T01:21:35;3.53;;;2.23;;
8893;SDS011;4483;48.622;9.230;2023-05-07T01:24:06;2.77;;;2.30;;
8893;SDS011;4483;48.622;9.230;2023-05-07T01:26:33;2.30;;;2.10;;
8893;SDS011;4483;48.622;9.230;2023-05-07T01:29:00;5.33;;;2.10;;
8893;SDS011;4483;48.622;9.230;2023-05-07T01:31:27;2.00;;;1.90;;
8893;SDS011;4483;48.622;9.230;2023-05-07T01:33:53;2.10;;;1.90;;
8893;SDS011;4483;48.622;9.230;2023-05-07T01:36:23;2.20;;;2.10;;
8893;SDS011;4483;48.622;9.230;2023-05-07T01:38:52;2.00;;;1.90;;
8893;SDS011;4483;48.622;9.230;2023-05-07T01:41:21;2.20;;;2.00;;
8893;SDS011;4483;48.622;9.230;2023-05-07T01:43:48;9.60;;;2.20;;
8893;SDS011;4483;48.622;9.230;2023-05-07T01:46:16;3.03;;;2.20;;
8893;SDS011;4483;48.622;9.230;2023-05-07T01:48:44;2.23;;;2.00;;
8893;SDS011;4483;48.622;9.230;2023-05-07T01:51:11;4.23;;;2.27;;
8893;SDS011;4483;48.622;9.230;2023-05-07T01:53:38;2.20;;;2.10;;
8893;SDS011;4483;48.622;9.230;2023-05-07T01:56:05;3.27;;;2.30;;
8893;SDS011;4483;48.622;9.230;2023-05-07T01:58:34;2.10;;;2.00;;
8893;SDS011;4483;48.622;9.230;2023-05-07T02:01:01;3.73;;;2.10;;
8893;SDS011;4483;48.622;9.230;2023-05-07T02:03:27;2.73;;;2.53;;
8893;SDS011;4483;48.622;9.230;2023-05-07T02:05:54;2.67;;;2.47;;
8893;SDS011;4483;48.622;9.230;2023-05-07T02:08:21;2.97;;;2.30;;
8893;SDS011;4483;48.622;9.230;2023-05-07T02:10:47;4.30;;;2.60;;
8893;SDS011;4483;48.622;9.230;2023-05-07T02:13:14;4.90;;;2.33;;
8893;SDS011;4483;48.622;9.230;2023-05-07T02:15:42;5.80;;;2.23;;
8893;SDS011;4483;48.622;9.230;2023-05-07T02:18:12;4.40;;;2.20;;
8893;SDS011;4483;48.622;9.230;2023-05-07T02:20:38;2.10;;;1.90;;
8893;SDS011;4483;48.622;9.230;2023-05-07T02:23:05;2.23;;;2.07;;
8893;SDS011;4483;48.622;9.230;2023-05-07T02:25:31;1.80;;;1.70;;
8893;SDS011;4483;48.622;9.230;2023-05-07T02:27:58;4.93;;;1.97;;
8893;SDS011;4483;48.622;9.230;2023-05-07T02:30:25;4.87;;;2.23;;
8893;SDS011;4483;48.622;9.230;2023-05-07T02:32:53;2.50;;;2.30;;
8893;SDS011;4483;48.622;9.230;2023-05-07T02:35:20;3.53;;;2.23;;
8893;SDS011;4483;48.622;9.230;2023-05-07T02:37:46;2.53;;;2.03;;
8893;SDS011;4483;48.622;9.230;2023-05-07T02:40:13;3.23;;;2.20;;
8893;SDS011;4483;48.622;9.230;2023-05-07T02:42:40;5.50;;;2.10;;
8893;SDS011;4483;48.622;9.230;2023-05-07T02:45:07;2.00;;;1.90;;
8893;SDS011;4483;48.622;9.230;2023-05-07T02:47:34;3.17;;;2.00;;
8893;SDS011;4483;48.622;9.230;2023-05-07T02:50:02;2.00;;;1.90;;
8893;SDS011;4483;48.622;9.230;2023-05-07T02:52:29;4.37;;;2.33;;
8893;SDS011;4483;48.622;9.230;2023-05-07T02:54:56;3.47;;;2.00;;
8893;SDS011;4483;48.622;9.230;2023-05-07T02:57:22;2.33;;;2.10;;
8893;SDS011;4483;48.622;9.230;2023-05-07T02:59:49;6.70;;;2.10;;
8893;SDS011;4483;48.622;9.230;2023-05-07T03:02:16;2.03;;;1.80;;
8893;SDS011;4483;48.622;9.230;2023-05-07T03:04:42;2.87;;;1.90;;
8893;SDS011;4483;48.622;9.230;2023-05-07T03:07:10;6.23;;;2.60;;
8893;SDS011;4483;48.622;9.230;2023-05-07T03:09:37;6.13;;;2.07;;
8893;SDS011;4483;48.622;9.230;2023-05-07T03:12:04;2.10;;;2.00;;
8893;SDS011;4483;48.622;9.230;2023-05-07T03:14:30;2.27;;;2.10;;
8893;SDS011;4483;48.622;9.230;2023-05-07T03:16:57;2.10;;;1.90;;
8893;SDS011;4483;48.622;9.230;2023-05-07T03:19:23;2.00;;;1.90;;
8893;SDS011;4483;48.622;9.230;2023-05-07T03:21:50;2.23;;;2.03;;
8893;SDS011;4483;48.622;9.230;2023-05-07T03:24:18;1.90;;;1.80;;
8893;SDS011;4483;48.622;9.230;2023-05-07T03:26:45;2.23;;;2.07;;
8893;SDS011;4483;48.622;9.230;2023-05-07T03:29:11;2.40;;;2.00;;
8893;SDS011;4483;48.622;9.230;2023-05-07T03:31:38;2.63;;;2.43;;
8893;SDS011;4483;48.622;9.230;2023-05-07T03:34:04;3.00;;;2.13;;
8893;SDS011;4483;48.622;9.230;2023-05-07T03:36:31;1.90;;;1.80;;
8893;SDS011;4483;48.622;9.230;2023-05-07T03:38:58;3.10;;;1.97;;
8893;SDS011;4483;48.622;9.230;2023-05-07T03:41:26;3.63;;;2.13;;
8893;SDS011;4483;48.622;9.230;2023-05-07T03:43:52;3.40;;;2.33;;
8893;SDS011;4483;48.622;9.230;2023-05-07T03:46:19;2.17;;;2.00;;
8893;SDS011;4483;48.622;9.230;2023-05-07T03:48:45;2.33;;;2.13;;
8893;SDS011;4483;48.622;9.230;2023-05-07T03:51:12;3.30;;;2.30;;
8893;SDS011;4483;48.622;9.230;2023-05-07T03:53:39;3.97;;;1.90;;
8893;SDS011;4483;48.622;9.230;2023-05-07T03:56:05;1.70;;;1.60;;
8893;SDS011;4483;48.622;9.230;2023-05-07T03:58:33;2.53;;;2.30;;
8893;SDS011;4483;48.622;9.230;2023-05-07T04:01:00;2.17;;;1.90;;
8893;SDS011;4483;48.622;9.230;2023-05-07T04:03:27;5.83;;;2.30;;
8893;SDS011;4483;48.622;9.230;2023-05-07T04:05:53;1.93;;;1.83;;
8893;SDS011;4483;48.622;9.230;2023-05-07T04:08:20;1.70;;;1.60;;
8893;SDS011;4483;48.622;9.230;2023-05-07T04:10:46;3.07;;;1.90;;
8893;SDS011;4483;48.622;9.230;2023-05-07T04:13:13;7.40;;;2.53;;
8893;SDS011;4483;48.622;9.230;2023-05-07T04:15:41;3.23;;;1.80;;
8893;SDS011;4483;48.622;9.230;2023-05-07T04:18:07;3.07;;;2.13;;
8893;SDS011;4483;48.622;9.230;2023-05-07T04:20:34;2.30;;;2.20;;
8893;SDS011;4483;48.622;9.230;2023-05-07T04:23:02;2.33;;;2.13;;
8893;SDS011;4483;48.622;9.230;2023-05-07T04:25:28;3.77;;;1.90;;
8893;SDS011;4483;48.622;9.230;2023-05-07T04:27:55;3.07;;;1.97;;
8893;SDS011;4483;48.622;9.230;2023-05-07T04:30:22;5.03;;;2.40;;
8893;SDS011;4483;48.622;9.230;2023-05-07T04:32:50;2.27;;;2.17;;
8893;SDS011;4483;48.622;9.230;2023-05-07T04:35:17;4.63;;;1.97;;
8893;SDS011;4483;48.622;9.230;2023-05-07T04:37:43;1.90;;;1.80;;
8893;SDS011;4483;48.622;9.230;2023-05-07T04:40:10;3.10;;;2.17;;
8893;SDS011;4483;48.622;9.230;2023-05-07T04:42:37;3.13;;;2.30;;
8893;SDS011;4483;48.622;9.230;2023-05-07T04:45:04;2.33;;;2.13;;
8893;SDS011;4483;48.622;9.230;2023-05-07T04:47:31;2.37;;;2.17;;
8893;SDS011;4483;48.622;9.230;2023-05-07T04:49:59;3.53;;;2.03;;
8893;SDS011;4483;48.622;9.230;2023-05-07T04:52:25;2.17;;;1.93;;
8893;SDS011;4483;48.622;9.230;2023-05-07T04:54:52;4.70;;;2.37;;
8893;SDS011;4483;48.622;9.230;2023-05-07T04:57:19;2.60;;;2.30;;
8893;SDS011;4483;48.622;9.230;2023-05-07T04:59:45;1.87;;;1.77;;
8893;SDS011;4483;48.622;9.230;2023-05-07T05:02:12;4.20;;;2.20;;
8893;SDS011;4483;48.622;9.230;2023-05-07T05:04:39;3.83;;;2.00;;
8893;SDS011;4483;48.622;9.230;2023-05-07T05:07:06;2.87;;;2.30;;
8893;SDS011;4483;48.622;9.230;2023-05-07T05:09:33;4.90;;;2.30;;
8893;SDS011;4483;48.622;9.230;2023-05-07T05:12:00;3.43;;;2.30;;
8893;SDS011;4483;48.622;9.230;2023-05-07T05:14:26;4.23;;;2.07;;
8893;SDS011;4483;48.622;9.230;2023-05-07T05:16:53;5.00;;;2.03;;
8893;SDS011;4483;48.622;9.230;2023-05-07T05:19:19;2.57;;;2.23;;
8893;SDS011;4483;48.622;9.230;2023-05-07T05:21:46;2.23;;;2.00;;
8893;SDS011;4483;48.622;9.230;2023-05-07T05:24:14;2.53;;;2.27;;
8893;SDS011;4483;48.622;9.230;2023-05-07T05:26:41;2.10;;;2.00;;
8893;SDS011;4483;48.622;9.230;2023-05-07T05:29:07;3.23;;;2.00;;
8893;SDS011;4483;48.622;9.230;2023-05-07T05:31:34;2.00;;;1.80;;
8893;SDS011;4483;48.622;9.230;2023-05-07T05:34:01;2.30;;;2.20;;
8893;SDS011;4483;48.622;9.230;2023-05-07T05:36:28;1.90;;;1.80;;
8893;SDS011;4483;48.622;9.230;2023-05-07T05:38:55;2.53;;;2.33;;
8893;SDS011;4483;48.622;9.230;2023-05-07T05:41:23;2.73;;;1.80;;
8893;SDS011;4483;48.622;9.230;2023-05-07T05:43:50;3.67;;;2.00;;
8893;SDS011;4483;48.622;9.230;2023-05-07T05:46:16;2.97;;;2.10;;
8893;SDS011;4483;48.622;9.230;2023-05-07T05:48:43;1.60;;;1.60;;
8893;SDS011;4483;48.622;9.230;2023-05-07T05:51:09;2.03;;;1.90;;
8893;SDS011;4483;48.622;9.230;2023-05-07T05:53:36;2.70;;;1.83;;
8893;SDS011;4483;48.622;9.230;2023-05-07T05:56:03;3.20;;;1.97;;
8893;SDS011;4483;48.622;9.230;2023-05-07T05:58:31;2.00;;;1.90;;
8893;SDS011;4483;48.622;9.230;2023-05-07T06:00:58;2.37;;;2.00;;
8893;SDS011;4483;48.622;9.230;2023-05-07T06:03:25;2.00;;;1.90;;
8893;SDS011;4483;48.622;9.230;2023-05-07T06:05:51;2.10;;;2.00;;
8893;SDS011;4483;48.622;9.230;2023-05-07T06:08:18;2.60;;;2.00;;
8893;SDS011;4483;48.622;9.230;2023-05-07T06:10:44;2.17;;;2.07;;
8893;SDS011;4483;48.622;9.230;2023-05-07T06:13:11;5.83;;;2.20;;
8893;SDS011;4483;48.622;9.230;2023-05-07T06:15:39;2.33;;;2.20;;
8893;SDS011;4483;48.622;9.230;2023-05-07T06:18:06;5.50;;;2.00;;
8893;SDS011;4483;48.622;9.230;2023-05-07T06:20:32;1.87;;;1.77;;
8893;SDS011;4483;48.622;9.230;2023-05-07T06:22:59;3.53;;;2.13;;
8893;SDS011;4483;48.622;9.230;2023-05-07T06:25:25;2.20;;;1.80;;
8893;SDS011;4483;48.622;9.230;2023-05-07T06:27:52;6.90;;;1.97;;
8893;SDS011;4483;48.622;9.230;2023-05-07T06:30:18;5.43;;;1.90;;
8893;SDS011;4483;48.622;9.230;2023-05-07T06:32:47;2.20;;;1.90;;
8893;SDS011;4483;48.622;9.230;2023-05-07T06:35:13;3.92;;;2.10;;
8893;SDS011;4483;48.622;9.230;2023-05-07T06:37:40;2.17;;;2.07;;
8893;SDS011;4483;48.622;9.230;2023-05-07T06:40:08;2.38;;;2.00;;
8893;SDS011;4483;48.622;9.230;2023-05-07T06:42:35;3.85;;;2.10;;
8893;SDS011;4483;48.622;9.230;2023-05-07T06:45:02;2.20;;;2.10;;
8893;SDS011;4483;48.622;9.230;2023-05-07T06:47:29;2.45;;;2.20;;
8893;SDS011;4483;48.622;9.230;2023-05-07T06:49:57;2.97;;;2.20;;
8893;SDS011;4483;48.622;9.230;2023-05-07T06:52:23;1.95;;;1.85;;
8893;SDS011;4483;48.622;9.230;2023-05-07T06:54:51;3.17;;;2.50;;
8893;SDS011;4483;48.622;9.230;2023-05-07T06:57:17;3.55;;;2.05;;
8893;SDS011;4483;48.622;9.230;2023-05-07T06:59:44;5.85;;;2.28;;
8893;SDS011;4483;48.622;9.230;2023-05-07T07:02:10;4.45;;;2.28;;
8893;SDS011;4483;48.622;9.230;2023-05-07T07:04:37;3.15;;;2.22;;
8893;SDS011;4483;48.622;9.230;2023-05-07T07:07:05;5.20;;;2.30;;
8893;SDS011;4483;48.622;9.230;2023-05-07T07:09:31;2.63;;;2.00;;
8893;SDS011;4483;48.622;9.230;2023-05-07T07:11:58;2.45;;;2.33;;
8893;SDS011;4483;48.622;9.230;2023-05-07T07:14:25;2.47;;;2.20;;
8893;SDS011;4483;48.622;9.230;2023-05-07T07:16:51;3.53;;;2.28;;
8893;SDS011;4483;48.622;9.230;2023-05-07T07:19:18;2.70;;;2.50;;
8893;SDS011;4483;48.622;9.230;2023-05-07T07:21:45;2.95;;;2.75;;
8893;SDS011;4483;48.622;9.230;2023-05-07T07:24:13;3.50;;;2.95;;
8893;SDS011;4483;48.622;9.230;2023-05-07T07:26:44;3.45;;;2.70;;
8893;SDS011;4483;48.622;9.230;2023-05-07T07:29:10;3.42;;;2.75;;
8893;SDS011;4483;48.622;9.230;2023-05-07T07:31:37;2.72;;;2.53;;
8893;SDS011;4483;48.622;9.230;2023-05-07T07:34:03;2.80;;;2.60;;
8893;SDS011;4483;48.622;9.230;2023-05-07T07:36:30;2.67;;;2.45;;
8893;SDS011;4483;48.622;9.230;2023-05-07T07:38:56;4.13;;;2.78;;
8893;SDS011;4483;48.622;9.230;2023-05-07T07:41:24;9.02;;;3.20;;
8893;SDS011;4483;48.622;9.230;2023-05-07T07:43:51;4.03;;;3.17;;
8893;SDS011;4483;48.622;9.230;2023-05-07T07:46:17;3.08;;;2.78;;
8893;SDS011;4483;48.622;9.230;2023-05-07T07:48:44;3.33;;;3.08;;
8893;SDS011;4483;48.622;9.230;2023-05-07T07:51:11;3.28;;;2.88;;
8893;SDS011;4483;48.622;9.230;2023-05-07T07:53:37;3.30;;;2.90;;
8893;SDS011;4483;48.622;9.230;2023-05-07T07:56:04;3.75;;;2.85;;
8893;SDS011;4483;48.622;9.230;2023-05-07T07:58:32;3.38;;;3.08;;
8893;SDS011;4483;48.622;9.230;2023-05-07T08:01:00;3.10;;;2.47;;
8893;SDS011;4483;48.622;9.230;2023-05-07T08:03:27;4.25;;;2.95;;
8893;SDS011;4483;48.622;9.230;2023-05-07T08:05:56;3.13;;;2.83;;
8893;SDS011;4483;48.622;9.230;2023-05-07T08:08:23;4.13;;;2.72;;
8893;SDS011;4483;48.622;9.230;2023-05-07T08:10:49;6.28;;;2.85;;
8893;SDS011;4483;48.622;9.230;2023-05-07T08:13:17;3.97;;;2.70;;
8893;SDS011;4483;48.622;9.230;2023-05-07T08:15:45;2.88;;;2.65;;
8893;SDS011;4483;48.622;9.230;2023-05-07T08:18:11;3.00;;;2.80;;
8893;SDS011;4483;48.622;9.230;2023-05-07T08:20:38;2.50;;;2.40;;
8893;SDS011;4483;48.622;9.230;2023-05-07T08:23:06;2.67;;;2.47;;
8893;SDS011;4483;48.622;9.230;2023-05-07T08:25:33;2.58;;;2.38;;
8893;SDS011;4483;48.622;9.230;2023-05-07T08:27:59;2.90;;;2.70;;
8893;SDS011;4483;48.622;9.230;2023-05-07T08:30:28;2.85;;;2.40;;
8893;SDS011;4483;48.622;9.230;2023-05-07T08:32:56;2.80;;;2.60;;
8893;SDS011;4483;48.622;9.230;2023-05-07T08:35:22;2.60;;;2.50;;
8893;SDS011;4483;48.622;9.230;2023-05-07T08:37:50;2.70;;;2.50;;
8893;SDS011;4483;48.622;9.230;2023-05-07T08:40:17;2.97;;;2.55;;
8893;SDS011;4483;48.622;9.230;2023-05-07T08:42:44;2.97;;;2.40;;
8893;SDS011;4483;48.622;9.230;2023-05-07T08:45:12;5.65;;;2.40;;
8893;SDS011;4483;48.622;9.230;2023-05-07T08:47:40;2.90;;;2.63;;
8893;SDS011;4483;48.622;9.230;2023-05-07T08:50:12;3.63;;;2.58;;
8893;SDS011;4483;48.622;9.230;2023-05-07T08:52:39;2.70;;;2.50;;
8893;SDS011;4483;48.622;9.230;2023-05-07T08:55:06;2.40;;;2.20;;
8893;SDS011;4483;48.622;9.230;2023-05-07T08:57:33;2.50;;;2.20;;
8893;SDS011;4483;48.622;9.230;2023-05-07T09:00:00;2.15;;;2.00;;
8893;SDS011;4483;48.622;9.230;2023-05-07T09:02:27;1.90;;;1.80;;
8893;SDS011;4483;48.622;9.230;2023-05-07T09:04:54;2.67;;;2.20;;
8893;SDS011;4483;48.622;9.230;2023-05-07T09:07:22;2.53;;;2.33;;
8893;SDS011;4483;48.622;9.230;2023-05-07T09:09:48;2.00;;;1.90;;
8893;SDS011;4483;48.622;9.230;2023-05-07T09:12:15;2.55;;;2.08;;
8893;SDS011;4483;48.622;9.230;2023-05-07T09:14:43;3.08;;;2.30;;
8893;SDS011;4483;48.622;9.230;2023-05-07T09:17:10;3.55;;;2.15;;
8893;SDS011;4483;48.622;9.230;2023-05-07T09:19:37;2.55;;;2.13;;
8893;SDS011;4483;48.622;9.230;2023-05-07T09:22:04;2.10;;;1.95;;
8893;SDS011;4483;48.622;9.230;2023-05-07T09:24:33;2.17;;;2.08;;
8893;SDS011;4483;48.622;9.230;2023-05-07T09:27:02;2.85;;;2.28;;
8893;SDS011;4483;48.622;9.230;2023-05-07T09:29:30;2.03;;;1.92;;
8893;SDS011;4483;48.622;9.230;2023-05-07T09:32:00;2.20;;;2.10;;
8893;SDS011;4483;48.622;9.230;2023-05-07T09:34:27;3.30;;;2.00;;
8893;SDS011;4483;48.622;9.230;2023-05-07T09:36:53;1.90;;;1.80;;
8893;SDS011;4483;48.622;9.230;2023-05-07T09:39:20;4.07;;;1.65;;
8893;SDS011;4483;48.622;9.230;2023-05-07T09:41:48;2.80;;;2.22;;
8893;SDS011;4483;48.622;9.230;2023-05-07T09:44:16;3.10;;;1.60;;
8893;SDS011;4483;48.622;9.230;2023-05-07T09:46:43;3.88;;;1.92;;
8893;SDS011;4483;48.622;9.230;2023-05-07T09:49:12;1.98;;;1.85;;
8893;SDS011;4483;48.622;9.230;2023-05-07T09:51:47;2.28;;;2.13;;
8893;SDS011;4483;48.622;9.230;2023-05-07T09:54:15;1.92;;;1.80;;
8893;SDS011;4483;48.622;9.230;2023-05-07T09:56:42;1.80;;;1.70;;
8893;SDS011;4483;48.622;9.230;2023-05-07T09:59:12;2.22;;;1.90;;
8893;SDS011;4483;48.622;9.230;2023-05-07T10:01:41;1.85;;;1.75;;
8893;SDS011;4483;48.622;9.230;2023-05-07T10:04:08;3.25;;;1.92;;
8893;SDS011;4483;48.622;9.230;2023-05-07T10:06:36;1.80;;;1.70;;
8893;SDS011;4483;48.622;9.230;2023-05-07T10:09:04;2.00;;;1.90;;
8893;SDS011;4483;48.622;9.230;2023-05-07T10:11:31;1.77;;;1.65;;
8893;SDS011;4483;48.622;9.230;2023-05-07T10:13:59;1.75;;;1.65;;
8893;SDS011;4483;48.622;9.230;2023-05-07T10:16:28;1.83;;;1.73;;
8893;SDS011;4483;48.622;9.230;2023-05-07T10:18:57;1.88;;;1.77;;
8893;SDS011;4483;48.622;9.230;2023-05-07T10:21:24;2.22;;;1.90;;
8893;SDS011;4483;48.622;9.230;2023-05-07T10:23:57;2.15;;;1.90;;
8893;SDS011;4483;48.622;9.230;2023-05-07T10:26:25;2.05;;;1.80;;
8893;SDS011;4483;48.622;9.230;2023-05-07T10:28:56;1.75;;;1.65;;
8893;SDS011;4483;48.622;9.230;2023-05-07T10:31:42;1.63;;;1.52;;
8893;SDS011;4483;48.622;9.230;2023-05-07T10:34:21;1.70;;;1.60;;
8893;SDS011;4483;48.622;9.230;2023-05-07T10:36:50;1.73;;;1.63;;
8893;SDS011;4483;48.622;9.230;2023-05-07T10:39:18;1.80;;;1.70;;
8893;SDS011;4483;48.622;9.230;2023-05-07T10:41:46;3.55;;;1.65;;
8893;SDS011;4483;48.622;9.230;2023-05-07T10:44:24;1.92;;;1.60;;
8893;SDS011;4483;48.622;9.230;2023-05-07T10:47:04;2.72;;;1.65;;
8893;SDS011;4483;48.622;9.230;2023-05-07T10:49:34;1.75;;;1.65;;
8893;SDS011;4483;48.622;9.230;2023-05-07T10:52:13;1.48;;;1.40;;
8893;SDS011;4483;48.622;9.230;2023-05-07T10:54:41;2.63;;;1.65;;
8893;SDS011;4483;48.622;9.230;2023-05-07T11:00:01;1.88;;;1.77;;
8893;SDS011;4483;48.622;9.230;2023-05-07T11:05:32;1.77;;;1.45;;
8893;SDS011;4483;48.622;9.230;2023-05-07T11:08:00;1.73;;;1.70;;
8893;SDS011;4483;48.622;9.230;2023-05-07T11:13:16;2.15;;;1.67;;
8893;SDS011;4483;48.622;9.230;2023-05-07T11:15:43;3.42;;;1.95;;
8893;SDS011;4483;48.622;9.230;2023-05-07T11:18:13;1.40;;;1.40;;
8893;SDS011;4483;48.622;9.230;2023-05-07T11:20:44;1.60;;;1.50;;
8893;SDS011;4483;48.622;9.230;2023-05-07T11:26:44;2.67;;;1.65;;
8893;SDS011;4483;48.622;9.230;2023-05-07T11:29:12;3.28;;;1.63;;
8893;SDS011;4483;48.622;9.230;2023-05-07T11:31:43;1.58;;;1.48;;
8893;SDS011;4483;48.622;9.230;2023-05-07T11:34:11;3.22;;;1.40;;
8893;SDS011;4483;48.622;9.230;2023-05-07T11:36:41;1.73;;;1.60;;
8893;SDS011;4483;48.622;9.230;2023-05-07T11:39:25;2.92;;;1.70;;
8893;SDS011;4483;48.622;9.230;2023-05-07T11:41:53;1.65;;;1.55;;
8893;SDS011;4483;48.622;9.230;2023-05-07T11:44:19;2.58;;;1.77;;
8893;SDS011;4483;48.622;9.230;2023-05-07T11:46:46;1.80;;;1.70;;
8893;SDS011;4483;48.622;9.230;2023-05-07T11:49:14;2.10;;;1.63;;
8893;SDS011;4483;48.622;9.230;2023-05-07T11:51:41;2.67;;;1.50;;
8893;SDS011;4483;48.622;9.230;2023-05-07T11:54:08;1.75;;;1.65;;
8893;SDS011;4483;48.622;9.230;2023-05-07T11:56:36;2.80;;;1.80;;
8893;SDS011;4483;48.622;9.230;2023-05-07T11:59:04;1.63;;;1.35;;
8893;SDS011;4483;48.622;9.230;2023-05-07T12:01:30;1.83;;;1.73;;
8893;SDS011;4483;48.622;9.230;2023-05-07T12:03:57;2.42;;;1.40;;
8893;SDS011;4483;48.622;9.230;2023-05-07T12:06:25;2.70;;;1.60;;
8893;SDS011;4483;48.622;9.230;2023-05-07T12:08:52;2.88;;;2.67;;
8893;SDS011;4483;48.622;9.230;2023-05-07T12:11:22;4.50;;;3.22;;
8893;SDS011;4483;48.622;9.230;2023-05-07T12:13:50;1.73;;;1.60;;
8893;SDS011;4483;48.622;9.230;2023-05-07T12:16:17;1.13;;;1.13;;
8893;SDS011;4483;48.622;9.230;2023-05-07T12:18:44;1.38;;;1.27;;
8893;SDS011;4483;48.622;9.230;2023-05-07T12:21:11;1.00;;;1.00;;
8893;SDS011;4483;48.622;9.230;2023-05-07T12:23:39;1.20;;;1.20;;
8893;SDS011;4483;48.622;9.230;2023-05-07T12:26:06;2.85;;;1.15;;
8893;SDS011;4483;48.622;9.230;2023-05-07T12:28:36;1.10;;;1.00;;
8893;SDS011;4483;48.622;9.230;2023-05-07T12:31:04;2.80;;;1.20;;
8893;SDS011;4483;48.622;9.230;2023-05-07T12:33:31;1.45;;;1.10;;
8893;SDS011;4483;48.622;9.230;2023-05-07T12:35:58;2.25;;;1.10;;
8893;SDS011;4483;48.622;9.230;2023-05-07T12:38:33;1.25;;;1.10;;
8893;SDS011;4483;48.622;9.230;2023-05-07T12:41:02;1.13;;;1.02;;
8893;SDS011;4483;48.622;9.230;2023-05-07T12:43:29;0.90;;;0.90;;
8893;SDS011;4483;48.622;9.230;2023-05-07T12:45:57;4.68;;;1.33;;
8893;SDS011;4483;48.622;9.230;2023-05-07T12:48:25;2.03;;;1.38;;
8893;SDS011;4483;48.622;9.230;2023-05-07T12:50:54;3.08;;;1.75;;
8893;SDS011;4483;48.622;9.230;2023-05-07T12:53:21;2.55;;;1.38;;
8893;SDS011;4483;48.622;9.230;2023-05-07T12:55:51;2.17;;;1.60;;
8893;SDS011;4483;48.622;9.230;2023-05-07T12:58:20;1.88;;;1.73;;
8893;SDS011;4483;48.622;9.230;2023-05-07T13:00:49;1.20;;;1.20;;
8893;SDS011;4483;48.622;9.230;2023-05-07T13:03:23;1.80;;;1.20;;
8893;SDS011;4483;48.622;9.230;2023-05-07T13:05:51;1.20;;;1.20;;
8893;SDS011;4483;48.622;9.230;2023-05-07T13:08:28;1.38;;;1.20;;
8893;SDS011;4483;48.622;9.230;2023-05-07T13:10:57;1.30;;;1.20;;
8893;SDS011;4483;48.622;9.230;2023-05-07T13:13:26;3.03;;;1.15;;
8893;SDS011;4483;48.622;9.230;2023-05-07T13:15:52;1.67;;;1.20;;
8893;SDS011;4483;48.622;9.230;2023-05-07T13:18:19;1.98;;;1.30;;
8893;SDS011;4483;48.622;9.230;2023-05-07T13:20:45;1.30;;;1.20;;
8893;SDS011;4483;48.622;9.230;2023-05-07T13:23:12;1.42;;;1.30;;
8893;SDS011;4483;48.622;9.230;2023-05-07T13:25:38;4.30;;;1.67;;
8893;SDS011;4483;48.622;9.230;2023-05-07T13:28:05;6.32;;;1.45;;
8893;SDS011;4483;48.622;9.230;2023-05-07T13:30:33;4.68;;;1.55;;
8893;SDS011;4483;48.622;9.230;2023-05-07T13:33:00;9.50;;;1.60;;
8893;SDS011;4483;48.622;9.230;2023-05-07T13:35:26;1.50;;;1.40;;
8893;SDS011;4483;48.622;9.230;2023-05-07T13:37:53;3.33;;;1.83;;
8893;SDS011;4483;48.622;9.230;2023-05-07T13:40:20;2.25;;;1.50;;
8893;SDS011;4483;48.622;9.230;2023-05-07T13:42:47;3.53;;;2.22;;
8893;SDS011;4483;48.622;9.230;2023-05-07T13:45:14;6.10;;;2.55;;
8893;SDS011;4483;48.622;9.230;2023-05-07T13:47:42;5.07;;;2.00;;
8893;SDS011;4483;48.622;9.230;2023-05-07T13:50:09;1.38;;;1.38;;
8893;SDS011;4483;48.622;9.230;2023-05-07T13:52:38;2.25;;;1.65;;
8893;SDS011;4483;48.622;9.230;2023-05-07T13:55:06;1.92;;;1.65;;
8893;SDS011;4483;48.622;9.230;2023-05-07T13:57:33;6.05;;;1.83;;
8893;SDS011;4483;48.622;9.230;2023-05-07T13:59:59;3.90;;;2.03;;
8893;SDS011;4483;48.622;9.230;2023-05-07T14:02:26;4.78;;;1.85;;
8893;SDS011;4483;48.622;9.230;2023-05-07T14:04:54;4.22;;;2.13;;
8893;SDS011;4483;48.622;9.230;2023-05-07T14:07:20;2.80;;;1.88;;
8893;SDS011;4483;48.622;9.230;2023-05-07T14:09:47;4.45;;;1.80;;
8893;SDS011;4483;48.622;9.230;2023-05-07T14:12:13;1.63;;;1.52;;
8893;SDS011;4483;48.622;9.230;2023-05-07T14:14:40;3.65;;;1.60;;
8893;SDS011;4483;48.622;9.230;2023-05-07T14:17:07;1.58;;;1.48;;
8893;SDS011;4483;48.622;9.230;2023-05-07T14:19:34;3.58;;;2.00;;
8893;SDS011;4483;48.622;9.230;2023-05-07T14:22:02;2.10;;;1.90;;
8893;SDS011;4483;48.622;9.230;2023-05-07T14:24:28;5.75;;;2.08;;
8893;SDS011;4483;48.622;9.230;2023-05-07T14:26:55;2.22;;;1.63;;
8893;SDS011;4483;48.622;9.230;2023-05-07T14:29:22;3.20;;;1.70;;
8893;SDS011;4483;48.622;9.230;2023-05-07T14:31:48;2.45;;;1.90;;
8893;SDS011;4483;48.622;9.230;2023-05-07T14:34:15;5.95;;;1.85;;
8893;SDS011;4483;48.622;9.230;2023-05-07T14:36:41;2.83;;;1.95;;
8893;SDS011;4483;48.622;9.230;2023-05-07T14:39:10;6.38;;;1.80;;
8893;SDS011;4483;48.622;9.230;2023-05-07T14:41:36;2.28;;;1.75;;
8893;SDS011;4483;48.622;9.230;2023-05-07T14:44:03;3.88;;;1.70;;
8893;SDS011;4483;48.622;9.230;2023-05-07T14:46:30;2.85;;;1.70;;
8893;SDS011;4483;48.622;9.230;2023-05-07T14:48:56;2.03;;;1.50;;
8893;SDS011;4483;48.622;9.230;2023-05-07T14:51:23;5.00;;;2.00;;
8893;SDS011;4483;48.622;9.230;2023-05-07T14:53:50;2.03;;;1.80;;
8893;SDS011;4483;48.622;9.230;2023-05-07T14:56:18;4.32;;;1.75;;
8893;SDS011;4483;48.622;9.230;2023-05-07T14:58:46;2.50;;;1.90;;
8893;SDS011;4483;48.622;9.230;2023-05-07T15:01:13;4.30;;;2.72;;
8893;SDS011;4483;48.622;9.230;2023-05-07T15:03:40;5.00;;;2.30;;
8893;SDS011;4483;48.622;9.230;2023-05-07T15:06:06;4.68;;;2.20;;
8893;SDS011;4483;48.622;9.230;2023-05-07T15:08:33;4.30;;;2.13;;
8893;SDS011;4483;48.622;9.230;2023-05-07T15:11:00;3.33;;;2.00;;
8893;SDS011;4483;48.622;9.230;2023-05-07T15:13:27;1.70;;;1.60;;
8893;SDS011;4483;48.622;9.230;2023-05-07T15:15:54;2.83;;;1.67;;
8893;SDS011;4483;48.622;9.230;2023-05-07T15:18:21;3.38;;;2.75;;
8893;SDS011;4483;48.622;9.230;2023-05-07T15:20:47;4.13;;;1.70;;
8893;SDS011;4483;48.622;9.230;2023-05-07T15:23:14;4.22;;;2.00;;
8893;SDS011;4483;48.622;9.230;2023-05-07T15:25:40;1.90;;;1.80;;
8893;SDS011;4483;48.622;9.230;2023-05-07T15:28:07;4.38;;;1.85;;